createdAt,value
2022-07-25T00:00:34.369Z,11.3
2022-07-25T00:01:34.529Z,12.6
2022-07-25T00:02:34.360Z,11.7
2022-07-25T00:03:34.403Z,11.9
2022-07-25T00:04:34.454Z,12
2022-07-25T00:05:37.844Z,11
2022-07-25T00:06:34.429Z,11.3
2022-07-25T00:07:34.359Z,12.5
2022-07-25T00:08:34.359Z,11.3
2022-07-25T00:09:34.376Z,10.9
2022-07-25T00:10:34.603Z,11.9
2022-07-25T00:11:34.580Z,11.7
2022-07-25T00:12:34.360Z,12.2
2022-07-25T00:13:34.358Z,12.3
2022-07-25T00:14:34.357Z,11.5
2022-07-25T00:15:34.430Z,11.9
2022-07-25T00:16:34.433Z,11.5
2022-07-25T00:17:34.463Z,11.3
2022-07-25T00:18:34.391Z,10.8
2022-07-25T00:19:34.378Z,11.8
2022-07-25T00:20:34.419Z,15
2022-07-25T00:21:34.386Z,12.1
2022-07-25T00:22:34.387Z,11.9
2022-07-25T00:23:34.480Z,11.5
2022-07-25T00:24:34.413Z,11.6
2022-07-25T00:25:34.405Z,14.5
2022-07-25T00:26:39.492Z,12.6
2022-07-25T00:27:34.425Z,11.7
2022-07-25T00:28:34.494Z,12.9
2022-07-25T00:29:34.432Z,11.6
2022-07-25T00:30:34.362Z,12.4
2022-07-25T00:31:34.566Z,13.2
2022-07-25T00:32:34.379Z,13.5
2022-07-25T00:33:34.366Z,13.1
2022-07-25T00:34:34.406Z,13.4
2022-07-25T00:35:34.405Z,12.3
2022-07-25T00:36:34.522Z,12
2022-07-25T00:37:34.406Z,13.5
2022-07-25T00:38:34.356Z,14.4
2022-07-25T00:39:35.742Z,13.8
2022-07-25T00:40:34.361Z,12.5
2022-07-25T00:41:34.375Z,12.1
2022-07-25T00:42:34.358Z,12
2022-07-25T00:43:34.367Z,11.6
2022-07-25T00:44:34.369Z,13.9
2022-07-25T00:45:34.362Z,11.1
2022-07-25T00:46:34.441Z,12.1
2022-07-25T00:47:34.398Z,11.4
2022-07-25T00:48:34.428Z,12.1
2022-07-25T00:49:34.378Z,11.9
2022-07-25T00:50:34.391Z,11.4
2022-07-25T00:51:34.381Z,11.4
2022-07-25T00:52:34.369Z,11
2022-07-25T00:53:34.408Z,11.3
2022-07-25T00:54:34.363Z,11.8
2022-07-25T00:55:34.377Z,11.2
2022-07-25T00:56:34.408Z,12.5
2022-07-25T00:57:34.405Z,11.4
2022-07-25T00:58:34.393Z,11.7
2022-07-25T00:59:34.365Z,12.2
2022-07-25T01:00:34.397Z,12.2
2022-07-25T01:01:34.481Z,11.9
2022-07-25T01:02:34.450Z,11.9
2022-07-25T01:03:34.370Z,11.7
2022-07-25T01:04:34.375Z,12.3
2022-07-25T01:05:34.375Z,12.5
2022-07-25T01:06:34.422Z,11.6
2022-07-25T01:07:34.365Z,13
2022-07-25T01:08:34.358Z,12
2022-07-25T01:09:34.360Z,11.7
2022-07-25T01:10:34.397Z,12.2
2022-07-25T01:11:34.566Z,12.4
2022-07-25T01:12:34.487Z,11.9
2022-07-25T01:13:34.362Z,12.5
2022-07-25T01:14:34.368Z,11.4
2022-07-25T01:15:34.445Z,11.5
2022-07-25T01:16:34.379Z,11.8
2022-07-25T01:17:34.442Z,11.5
2022-07-25T01:18:34.422Z,12.2
2022-07-25T01:19:34.373Z,12.2
2022-07-25T01:20:34.369Z,12.2
2022-07-25T01:21:34.388Z,11.9
2022-07-25T01:22:34.387Z,12.1
2022-07-25T01:23:34.368Z,11.7
2022-07-25T01:24:34.383Z,12
2022-07-25T01:25:34.365Z,12
2022-07-25T01:26:34.409Z,11.7
2022-07-25T01:27:34.381Z,10.8
2022-07-25T01:28:34.507Z,12.1
2022-07-25T01:29:34.425Z,12.6
2022-07-25T01:30:34.381Z,10.9
2022-07-25T01:31:34.470Z,11.8
2022-07-25T01:32:34.405Z,11.8
2022-07-25T01:33:34.400Z,11.5
2022-07-25T01:34:34.424Z,11.7
2022-07-25T01:35:34.415Z,11.8
2022-07-25T01:36:34.493Z,12
2022-07-25T01:37:34.361Z,11.3
2022-07-25T01:38:34.403Z,11.8
2022-07-25T01:39:34.394Z,11.3
2022-07-25T01:40:34.384Z,11.5
2022-07-25T01:41:34.376Z,11.5
2022-07-25T01:42:34.365Z,10.9
2022-07-25T01:43:34.379Z,12.2
2022-07-25T01:44:34.365Z,10.8
2022-07-25T01:45:34.369Z,10.5
2022-07-25T01:46:34.494Z,10.7
2022-07-25T01:47:34.396Z,10.9
2022-07-25T01:48:34.397Z,10.5
2022-07-25T01:49:34.381Z,13.2
2022-07-25T01:50:34.368Z,12.2
2022-07-25T01:51:34.412Z,11.6
2022-07-25T01:52:34.374Z,12.2
2022-07-25T01:53:34.366Z,11.2
2022-07-25T01:54:34.371Z,10.5
2022-07-25T01:55:34.362Z,10.9
2022-07-25T01:56:34.385Z,13
2022-07-25T01:57:34.366Z,11.6
2022-07-25T01:58:34.363Z,11.7
2022-07-25T01:59:34.368Z,10.8
2022-07-25T02:00:34.376Z,10.8
2022-07-25T02:01:34.558Z,11.5
2022-07-25T02:02:34.381Z,11.2
2022-07-25T02:03:34.370Z,8.9
2022-07-25T02:04:34.505Z,10.3
2022-07-25T02:05:34.362Z,11.8
2022-07-25T02:06:34.380Z,10.1
2022-07-25T02:07:34.399Z,10.1
2022-07-25T02:08:34.359Z,10.5
2022-07-25T02:09:34.433Z,10.5
2022-07-25T02:10:34.442Z,9.2
2022-07-25T02:11:34.380Z,10.1
2022-07-25T02:12:34.363Z,8.6
2022-07-25T02:13:34.360Z,8.7
2022-07-25T02:14:34.385Z,8.8
2022-07-25T02:15:34.404Z,9.5
2022-07-25T02:16:34.436Z,9.3
2022-07-25T02:17:34.385Z,9.9
2022-07-25T02:18:34.516Z,8.9
2022-07-25T02:19:34.442Z,9.3
2022-07-25T02:20:34.387Z,10.5
2022-07-25T02:21:34.388Z,9.3
2022-07-25T02:22:34.391Z,9.4
2022-07-25T02:23:34.358Z,9.5
2022-07-25T02:24:34.363Z,9.1
2022-07-25T02:25:34.436Z,9.6
2022-07-25T02:26:34.380Z,9.1
2022-07-25T02:27:34.407Z,8.8
2022-07-25T02:28:34.364Z,9.7
2022-07-25T02:29:34.392Z,8.9
2022-07-25T02:30:34.538Z,8.5
2022-07-25T02:31:34.443Z,9.7
2022-07-25T02:32:34.363Z,9
2022-07-25T02:33:34.385Z,9.1
2022-07-25T02:34:34.411Z,8.1
2022-07-25T02:35:34.370Z,9.1
2022-07-25T02:36:34.382Z,8.6
2022-07-25T02:37:34.440Z,8.9
2022-07-25T02:38:34.471Z,11.5
2022-07-25T02:39:34.447Z,9.2
2022-07-25T02:40:34.394Z,9.4
2022-07-25T02:41:34.377Z,9.4
2022-07-25T02:42:34.363Z,8.5
2022-07-25T02:43:34.362Z,9.8
2022-07-25T02:44:34.364Z,10
2022-07-25T02:45:34.515Z,8
2022-07-25T02:46:34.507Z,9.4
2022-07-25T02:47:34.366Z,9.7
2022-07-25T02:48:34.445Z,10.6
2022-07-25T02:49:34.413Z,9.2
2022-07-25T02:50:34.419Z,9.5
2022-07-25T02:51:34.378Z,8.3
2022-07-25T02:52:34.396Z,8.8
2022-07-25T02:53:56.126Z,9.7
2022-07-25T02:54:34.403Z,8.9
2022-07-25T02:55:34.399Z,9
2022-07-25T02:56:34.415Z,9
2022-07-25T02:57:34.373Z,9.4
2022-07-25T02:58:34.377Z,8.6
2022-07-25T02:59:34.377Z,8.7
2022-07-25T03:00:34.369Z,10.3
2022-07-25T03:01:34.453Z,9.7
2022-07-25T03:02:34.389Z,9.7
2022-07-25T03:03:34.409Z,9.4
2022-07-25T03:04:34.474Z,8.4
2022-07-25T03:05:34.363Z,8.3
2022-07-25T03:06:34.371Z,9
2022-07-25T03:07:34.385Z,8.9
2022-07-25T03:08:34.368Z,8.9
2022-07-25T03:09:34.399Z,8.5
2022-07-25T03:10:34.382Z,8.7
2022-07-25T03:11:34.436Z,9.3
2022-07-25T03:12:34.382Z,8.4
2022-07-25T03:13:34.382Z,9.8
2022-07-25T03:14:34.384Z,8.4
2022-07-25T03:15:34.416Z,8.3
2022-07-25T03:16:34.499Z,9
2022-07-25T03:17:34.382Z,9.1
2022-07-25T03:18:34.381Z,9.7
2022-07-25T03:19:34.403Z,8.9
2022-07-25T03:20:34.408Z,8
2022-07-25T03:21:34.404Z,8.8
2022-07-25T03:22:34.382Z,9.1
2022-07-25T03:23:34.434Z,8.5
2022-07-25T03:24:34.391Z,7.8
2022-07-25T03:25:34.382Z,8.5
2022-07-25T03:26:34.424Z,9.8
2022-07-25T03:27:34.396Z,10.1
2022-07-25T03:28:34.398Z,8.7
2022-07-25T03:29:34.380Z,9.9
2022-07-25T03:30:34.382Z,9.9
2022-07-25T03:31:34.563Z,7.6
2022-07-25T03:32:34.382Z,7.8
2022-07-25T03:33:34.408Z,7.2
2022-07-25T03:34:34.396Z,9.8
2022-07-25T03:35:35.300Z,9
2022-07-25T03:36:34.397Z,11.5
2022-07-25T03:37:34.381Z,7.1
2022-07-25T03:38:34.452Z,9
2022-07-25T03:39:34.386Z,7.8
2022-07-25T03:40:34.438Z,9.3
2022-07-25T03:41:34.593Z,8.2
2022-07-25T03:42:35.574Z,9
2022-07-25T03:43:34.367Z,8.5
2022-07-25T03:44:34.438Z,7.6
2022-07-25T03:45:34.434Z,7.3
2022-07-25T03:46:34.421Z,8.8
2022-07-25T03:47:34.368Z,7.4
2022-07-25T03:48:34.568Z,8.2
2022-07-25T03:49:34.510Z,7.8
2022-07-25T03:50:34.371Z,7.9
2022-07-25T03:51:34.387Z,9.1
2022-07-25T03:52:34.404Z,9
2022-07-25T03:53:34.357Z,8.5
2022-07-25T03:54:34.391Z,6.4
2022-07-25T03:55:34.391Z,6.4
2022-07-25T03:56:34.423Z,7.8
2022-07-25T03:57:34.362Z,8.1
2022-07-25T03:58:34.362Z,8
2022-07-25T03:59:34.363Z,8.4
2022-07-25T04:00:34.406Z,8.3
2022-07-25T04:01:34.532Z,8.5
2022-07-25T04:02:34.514Z,8.6
2022-07-25T04:03:34.387Z,8.6
2022-07-25T04:04:34.411Z,8.6
2022-07-25T04:05:34.413Z,9
2022-07-25T04:06:34.425Z,9.9
2022-07-25T04:07:34.426Z,7.2
2022-07-25T04:08:34.386Z,7.9
2022-07-25T04:09:34.384Z,8.1
2022-07-25T04:10:34.395Z,7.4
2022-07-25T04:11:34.406Z,9.3
2022-07-25T04:12:34.380Z,8.4
2022-07-25T04:13:34.388Z,9.7
2022-07-25T04:14:34.419Z,9.3
2022-07-25T04:15:34.383Z,9.2
2022-07-25T04:16:34.487Z,8.6
2022-07-25T04:17:34.412Z,7
2022-07-25T04:18:34.408Z,8.5
2022-07-25T04:19:34.455Z,7.4
2022-07-25T04:20:34.400Z,7.4
2022-07-25T04:21:34.401Z,9.8
2022-07-25T04:22:34.384Z,8.5
2022-07-25T04:23:34.366Z,7.9
2022-07-25T04:24:34.369Z,7.8
2022-07-25T04:25:34.380Z,8.8
2022-07-25T04:26:34.376Z,8.2
2022-07-25T04:27:34.372Z,8.4
2022-07-25T04:28:34.395Z,9.4
2022-07-25T04:29:34.388Z,8.6
2022-07-25T04:30:34.363Z,8.6
2022-07-25T04:31:34.441Z,9
2022-07-25T04:32:34.367Z,9.8
2022-07-25T04:33:34.409Z,9.8
2022-07-25T04:34:34.428Z,8.1
2022-07-25T04:35:34.483Z,8.7
2022-07-25T04:36:34.371Z,8.7
2022-07-25T04:37:34.509Z,8.1
2022-07-25T04:38:34.371Z,8.2
2022-07-25T04:39:34.376Z,8.6
2022-07-25T04:40:34.447Z,8.4
2022-07-25T04:41:34.434Z,8.5
2022-07-25T04:42:34.392Z,9.7
2022-07-25T04:43:34.396Z,8.5
2022-07-25T04:44:34.404Z,8.4
2022-07-25T04:45:34.646Z,8.9
2022-07-25T04:46:34.367Z,8.4
2022-07-25T04:47:34.366Z,8.3
2022-07-25T04:48:34.440Z,8.7
2022-07-25T04:49:34.402Z,9.1
2022-07-25T04:50:34.365Z,8.3
2022-07-25T04:51:34.431Z,9.5
2022-07-25T04:52:34.401Z,8.6
2022-07-25T04:53:34.389Z,8.9
2022-07-25T04:54:34.360Z,9.9
2022-07-25T04:55:34.360Z,9.2
2022-07-25T04:56:34.374Z,10
2022-07-25T04:57:34.358Z,9.1
2022-07-25T04:58:34.364Z,7.7
2022-07-25T04:59:34.360Z,8.8
2022-07-25T05:00:34.412Z,9.9
2022-07-25T05:01:34.548Z,8.7
2022-07-25T05:02:34.442Z,8.6
2022-07-25T05:03:34.396Z,9.5
2022-07-25T05:04:35.025Z,10.6
2022-07-25T05:05:34.364Z,9.9
2022-07-25T05:06:34.390Z,10.5
2022-07-25T05:07:34.423Z,9.5
2022-07-25T05:08:34.414Z,8.3
2022-07-25T05:09:34.372Z,9.3
2022-07-25T05:10:34.400Z,9.7
2022-07-25T05:11:34.428Z,8.5
2022-07-25T05:12:34.380Z,8.2
2022-07-25T05:13:34.386Z,8.6
2022-07-25T05:14:34.378Z,9.2
2022-07-25T05:15:34.363Z,9
2022-07-25T05:16:34.458Z,9.6
2022-07-25T05:17:34.409Z,9.5
2022-07-25T05:18:34.402Z,10
2022-07-25T05:19:34.410Z,10.6
2022-07-25T05:20:34.380Z,9.6
2022-07-25T05:21:34.377Z,8.5
2022-07-25T05:22:34.364Z,8.6
2022-07-25T05:23:34.388Z,8.4
2022-07-25T05:24:34.404Z,10
2022-07-25T05:25:34.373Z,7.9
2022-07-25T05:26:34.397Z,10.2
2022-07-25T05:27:34.422Z,8
2022-07-25T05:28:34.378Z,8.9
2022-07-25T05:29:34.483Z,9.7
2022-07-25T05:30:39.444Z,9
2022-07-25T05:31:34.509Z,9.4
2022-07-25T05:32:34.406Z,8.7
2022-07-25T05:33:34.425Z,7.8
2022-07-25T05:34:34.381Z,8.9
2022-07-25T05:35:34.418Z,9.5
2022-07-25T05:36:34.456Z,9.4
2022-07-25T05:37:34.530Z,9.7
2022-07-25T05:38:34.423Z,9.6
2022-07-25T05:39:34.369Z,9.7
2022-07-25T05:40:34.366Z,9.3
2022-07-25T05:41:34.374Z,9.4
2022-07-25T05:42:34.405Z,10.1
2022-07-25T05:43:34.365Z,9.1
2022-07-25T05:44:34.361Z,9.5
2022-07-25T05:45:34.364Z,8.4
2022-07-25T05:46:34.513Z,8.3
2022-07-25T05:47:34.389Z,10.1
2022-07-25T05:48:34.448Z,8.1
2022-07-25T05:49:34.416Z,9.4
2022-07-25T05:50:34.359Z,10.3
2022-07-25T05:51:34.388Z,11.1
2022-07-25T05:52:34.419Z,9.4
2022-07-25T05:53:34.365Z,9.7
2022-07-25T05:54:34.369Z,10.1
2022-07-25T05:55:34.377Z,9.2
2022-07-25T05:56:34.399Z,8.8
2022-07-25T05:57:34.381Z,9.2
2022-07-25T05:58:34.380Z,11.7
2022-07-25T05:59:34.374Z,10.3
2022-07-25T06:00:34.415Z,9.1
2022-07-25T06:01:34.460Z,9.6
2022-07-25T06:02:34.508Z,10
2022-07-25T06:03:34.430Z,10.1
2022-07-25T06:04:34.437Z,10.4
2022-07-25T06:05:34.378Z,9.6
2022-07-25T06:06:34.388Z,9.1
2022-07-25T06:07:34.446Z,10.6
2022-07-25T06:08:34.388Z,10.7
2022-07-25T06:09:34.394Z,9.9
2022-07-25T06:10:34.420Z,8.9
2022-07-25T06:11:34.438Z,10.6
2022-07-25T06:12:34.461Z,9.6
2022-07-25T06:13:34.647Z,9.9
2022-07-25T06:14:34.372Z,11.4
2022-07-25T06:15:34.400Z,10.1
2022-07-25T06:16:34.474Z,11
2022-07-25T06:17:34.424Z,10.3
2022-07-25T06:18:34.438Z,10.7
2022-07-25T06:19:34.405Z,11.4
2022-07-25T06:20:34.405Z,11.2
2022-07-25T06:21:34.446Z,10.8
2022-07-25T06:22:34.412Z,10.1
2022-07-25T06:23:34.379Z,11.8
2022-07-25T06:24:34.404Z,19.8
2022-07-25T06:25:34.384Z,11.9
2022-07-25T06:26:34.412Z,11.4
2022-07-25T06:27:34.380Z,10.4
2022-07-25T06:28:34.376Z,11.3
2022-07-25T06:29:34.382Z,9.7
2022-07-25T06:30:34.416Z,10.1
2022-07-25T06:31:34.474Z,10.1
2022-07-25T06:32:34.379Z,10.4
2022-07-25T06:33:34.420Z,10.8
2022-07-25T06:34:34.377Z,10.5
2022-07-25T06:35:34.374Z,11.9
2022-07-25T06:36:34.389Z,10.2
2022-07-25T06:37:34.383Z,10.7
2022-07-25T06:38:34.441Z,9.9
2022-07-25T06:39:34.376Z,11.4
2022-07-25T06:40:34.416Z,10.9
2022-07-25T06:41:34.409Z,13.1
2022-07-25T06:42:34.382Z,10.7
2022-07-25T06:43:34.410Z,11.1
2022-07-25T06:44:34.380Z,10.7
2022-07-25T06:45:34.387Z,11
2022-07-25T06:46:34.535Z,12.9
2022-07-25T06:47:36.188Z,11.7
2022-07-25T06:48:34.481Z,15.4
2022-07-25T06:49:34.385Z,13.1
2022-07-25T06:50:34.504Z,10.6
2022-07-25T06:51:34.506Z,10.4
2022-07-25T06:52:34.377Z,12
2022-07-25T06:53:34.388Z,10.5
2022-07-25T06:54:34.379Z,13.1
2022-07-25T06:55:34.392Z,11.6
2022-07-25T06:56:34.452Z,11.3
2022-07-25T06:57:34.376Z,10.7
2022-07-25T06:58:34.463Z,13.7
2022-07-25T06:59:34.574Z,11.5
2022-07-25T07:00:34.485Z,10.3
2022-07-25T07:01:34.502Z,10.2
2022-07-25T07:02:34.401Z,11.4
2022-07-25T07:03:34.438Z,11.8
2022-07-25T07:04:34.541Z,12.7
2022-07-25T07:05:34.464Z,10.6
2022-07-25T07:06:34.440Z,10.8
2022-07-25T07:07:34.423Z,12
2022-07-25T07:08:34.376Z,10.8
2022-07-25T07:09:34.460Z,11.5
2022-07-25T07:10:34.440Z,11.6
2022-07-25T07:11:34.402Z,11.2
2022-07-25T07:12:34.379Z,11.7
2022-07-25T07:13:34.378Z,13.4
2022-07-25T07:14:34.372Z,11.2
2022-07-25T07:15:34.399Z,10.4
2022-07-25T07:16:34.535Z,11.4
2022-07-25T07:17:34.456Z,10.4
2022-07-25T07:18:34.377Z,11
2022-07-25T07:19:34.411Z,11.5
2022-07-25T07:20:40.932Z,10.1
2022-07-25T07:21:39.402Z,11.5
2022-07-25T07:22:39.337Z,12.1
2022-07-25T07:23:39.368Z,11.1
2022-07-25T07:24:44.087Z,10.3
2022-07-25T07:25:39.366Z,10.6
2022-07-25T07:26:39.340Z,10.9
2022-07-25T07:27:39.317Z,10.5
2022-07-25T07:28:39.285Z,11.2
2022-07-25T07:29:39.339Z,10.6
2022-07-25T07:31:13.293Z,12.4
2022-07-25T07:31:39.350Z,11.4
2022-07-25T07:32:39.299Z,10.5
2022-07-25T07:33:39.312Z,10.4
2022-07-25T07:34:39.336Z,11.5
2022-07-25T07:35:39.307Z,11.1
2022-07-25T07:36:39.354Z,11.8
2022-07-25T07:37:43.478Z,11.2
2022-07-25T07:38:39.290Z,12.2
2022-07-25T07:39:39.347Z,11.3
2022-07-25T07:40:39.292Z,10.9
2022-07-25T07:41:39.304Z,11.4
2022-07-25T07:42:39.329Z,12.7
2022-07-25T07:43:39.291Z,13.4
2022-07-25T07:44:39.286Z,10.8
2022-07-25T07:45:39.343Z,12.4
2022-07-25T07:46:39.415Z,13.1
2022-07-25T07:47:39.341Z,30.1
2022-07-25T07:48:39.323Z,14.3
2022-07-25T07:49:39.283Z,22.9
2022-07-25T07:50:39.317Z,13.1
2022-07-25T07:51:39.312Z,11.8
2022-07-25T07:52:39.367Z,11.3
2022-07-25T07:53:39.295Z,13.7
2022-07-25T07:54:39.291Z,11.9
2022-07-25T07:55:39.295Z,11.4
2022-07-25T07:56:39.312Z,11.4
2022-07-25T07:57:39.312Z,11.2
2022-07-25T07:58:39.331Z,11
2022-07-25T07:59:39.302Z,11.8
2022-07-25T08:00:39.303Z,11.3
2022-07-25T08:01:39.451Z,12.3
2022-07-25T08:02:39.336Z,12.4
2022-07-25T08:03:39.285Z,11.4
2022-07-25T08:04:39.290Z,12.4
2022-07-25T09:16:32.106Z,13.2
2022-07-25T09:16:45.314Z,14.1
2022-07-25T09:17:45.073Z,14.9
2022-07-25T09:18:45.033Z,13.9
2022-07-25T09:19:45.012Z,12.4
2022-07-25T09:20:45.059Z,13.2
2022-07-25T09:21:45.579Z,12.4
2022-07-25T09:22:44.970Z,11.9
2022-07-25T09:23:44.918Z,13.1
2022-07-25T09:24:44.945Z,14.2
2022-07-25T09:25:44.933Z,12
2022-07-25T09:26:44.958Z,14.7
2022-07-25T09:27:44.937Z,14
2022-07-25T09:28:44.977Z,12.6
2022-07-25T09:29:44.952Z,13.2
2022-07-25T09:30:45.004Z,13.9
2022-07-25T09:31:44.995Z,13.4
2022-07-25T09:32:52.783Z,12.2
2022-07-25T09:33:44.927Z,12.1
2022-07-25T09:34:44.971Z,12.8
2022-07-25T09:35:44.924Z,12.1
2022-07-25T09:57:51.331Z,169.4
2022-07-25T09:57:51.413Z,115.3
2022-07-25T09:58:22.240Z,115.3
2022-07-25T09:59:22.169Z,115.3
2022-07-25T10:00:42.726Z,115.3
2022-07-25T10:01:34.270Z,87.8
2022-07-25T10:02:22.148Z,44.6
2022-07-25T10:03:22.105Z,36.6
2022-07-25T10:04:22.113Z,29.1
2022-07-25T10:05:22.110Z,29.1
2022-07-25T10:06:22.094Z,27
2022-07-25T10:07:22.083Z,25.9
2022-07-25T10:08:22.081Z,20.8
2022-07-25T10:09:22.095Z,21.9
2022-07-25T10:10:22.106Z,20.5
2022-07-25T10:11:22.088Z,18.6
2022-07-25T10:12:38.275Z,18.6
2022-07-25T10:13:57.695Z,16.9
2022-07-25T10:14:22.079Z,17
2022-07-25T10:15:22.107Z,16.5
2022-07-25T10:16:22.175Z,16.9
2022-07-25T10:17:32.288Z,16
2022-07-25T10:18:22.170Z,15.1
2022-07-25T10:19:22.085Z,15.1
2022-07-25T10:20:22.106Z,14.7
2022-07-25T10:21:26.283Z,14.7
2022-07-25T10:22:39.682Z,14.4
2022-07-25T10:23:22.112Z,16.5
2022-07-25T10:24:22.118Z,15.6
2022-07-25T10:25:22.103Z,15.6
2022-07-25T10:26:22.078Z,15.4
2022-07-25T10:27:22.084Z,14.3
2022-07-25T10:29:35.688Z,15.7
2022-07-25T10:29:35.732Z,15.7
2022-07-25T10:30:22.094Z,13.3
2022-07-25T10:31:22.260Z,14.8
2022-07-25T10:32:22.106Z,17.6
2022-07-25T10:33:22.080Z,14.8
2022-07-25T10:34:22.084Z,18.2
2022-07-25T10:35:22.097Z,18.2
2022-07-25T10:36:22.090Z,19.1
2022-07-25T10:37:22.124Z,22.4
2022-07-25T10:38:29.722Z,22.4
2022-07-25T10:39:22.103Z,19.1
2022-07-25T10:40:22.123Z,20
2022-07-25T10:41:22.082Z,20.8
2022-07-25T10:42:22.086Z,15.4
2022-07-25T10:43:22.072Z,15.4
2022-07-25T10:44:22.088Z,16.2
2022-07-25T10:45:22.092Z,16.6
2022-07-25T10:46:22.197Z,17
2022-07-25T10:47:22.067Z,16.9
2022-07-25T10:48:22.075Z,16.9
2022-07-25T10:49:29.109Z,14.2
2022-07-25T10:50:46.183Z,20
2022-07-25T10:51:22.081Z,20
2022-07-25T10:52:22.085Z,22.4
2022-07-25T10:53:22.085Z,25.3
2022-07-25T10:54:22.085Z,22.7
2022-07-25T10:55:22.103Z,22.7
2022-07-25T10:56:22.099Z,17.6
2022-07-25T10:57:22.089Z,16.9
2022-07-25T10:58:42.400Z,17.9
2022-07-25T10:59:30.466Z,19.7
2022-07-25T11:00:22.104Z,31.1
2022-07-25T11:01:22.167Z,31
2022-07-25T11:02:42.388Z,15
2022-07-25T11:03:22.086Z,21.7
2022-07-25T11:04:32.305Z,21.7
2022-07-25T11:05:22.086Z,20.7
2022-07-25T11:06:22.083Z,20.9
2022-07-25T11:07:22.082Z,30
2022-07-25T11:08:22.787Z,38.1
2022-07-25T11:09:26.851Z,38.1
2022-07-25T11:10:22.087Z,27.2
2022-07-25T11:11:22.097Z,40.3
2022-07-25T11:12:22.075Z,34.5
2022-07-25T11:13:22.090Z,34.5
2022-07-25T11:14:23.809Z,49
2022-07-25T11:15:57.769Z,49
2022-07-25T11:16:43.107Z,19.2
2022-07-25T11:17:44.776Z,19.2
2022-07-25T11:18:22.102Z,30.7
2022-07-25T11:19:22.081Z,18.9
2022-07-25T11:20:28.025Z,27.8
2022-07-25T11:21:22.087Z,27.8
2022-07-25T11:22:22.093Z,20.8
2022-07-25T11:23:22.102Z,16.1
2022-07-25T11:24:22.088Z,32.2
2022-07-25T11:25:22.100Z,42.5
2022-07-25T11:26:22.068Z,37.6
2022-07-25T11:27:22.069Z,21.7
2022-07-25T11:28:22.074Z,26.5
2022-07-25T11:29:22.087Z,19.6
2022-07-25T11:30:22.072Z,16.9
2022-07-25T11:31:22.107Z,16.1
2022-07-25T11:32:22.061Z,28.6
2022-07-25T11:33:52.415Z,28.6
2022-07-25T11:34:42.410Z,28.6
2022-07-25T11:35:22.103Z,22.7
2022-07-25T11:36:30.159Z,22.7
2022-07-25T11:37:27.589Z,28.6
2022-07-25T11:38:22.134Z,26.6
2022-07-25T11:39:22.077Z,28
2022-07-25T11:40:22.089Z,20.2
2022-07-25T11:41:35.127Z,28.9
2022-07-25T11:42:22.073Z,19
2022-07-25T11:43:43.670Z,18.3
2022-07-25T11:44:22.075Z,24.1
2022-07-25T11:45:22.081Z,22.4
2022-07-25T11:46:22.146Z,22.4
2022-07-25T11:47:22.068Z,22.6
2022-07-25T11:48:22.073Z,22.6
2022-07-25T11:49:22.142Z,30.7
2022-07-25T11:50:23.789Z,30.7
2022-07-25T11:51:22.076Z,16.3
2022-07-25T11:52:22.082Z,21.5
2022-07-25T11:53:22.087Z,18.2
2022-07-25T11:54:40.474Z,18.2
2022-07-25T11:55:22.109Z,17.7
2022-07-25T11:56:40.881Z,19.5
2022-07-25T11:57:22.086Z,18.6
2022-07-25T11:58:22.071Z,15.5
2022-07-25T11:59:22.072Z,26.8
2022-07-25T12:00:22.081Z,18.1
2022-07-25T12:01:22.265Z,18.4
2022-07-25T12:02:22.190Z,21.7
2022-07-25T12:03:22.279Z,23.2
2022-07-25T12:04:22.073Z,22
2022-07-25T12:05:22.080Z,20
2022-07-25T12:06:22.098Z,21.5
2022-07-25T12:07:22.080Z,14.4
2022-07-25T12:08:22.091Z,17.7
2022-07-25T12:09:50.364Z,17.5
2022-07-25T12:10:22.093Z,25.2
2022-07-25T12:11:22.073Z,21.5
2022-07-25T12:12:22.071Z,15.7
2022-07-25T12:13:22.080Z,20.9
2022-07-25T12:14:22.100Z,21
2022-07-25T12:15:22.083Z,14.4
2022-07-25T12:16:22.147Z,14.4
2022-07-25T12:17:22.097Z,18
2022-07-25T12:18:22.073Z,22
2022-07-25T12:19:22.096Z,16.5
2022-07-25T12:20:22.090Z,20.1
2022-07-25T12:21:22.077Z,18.6
2022-07-25T12:22:22.072Z,15.8
2022-07-25T12:23:22.165Z,24
2022-07-25T12:24:50.888Z,15.3
2022-07-25T12:25:22.095Z,16.9
2022-07-25T12:26:44.712Z,16.7
2022-07-25T12:27:22.074Z,16.7
2022-07-25T12:28:22.075Z,18.3
2022-07-25T12:29:22.075Z,17.3
2022-07-25T12:31:04.336Z,22.6
2022-07-25T12:31:32.071Z,22.6
2022-07-25T12:32:22.087Z,21.1
2022-07-25T12:33:22.083Z,18.6
2022-07-25T12:34:22.078Z,17.7
2022-07-25T12:35:22.074Z,18.4
2022-07-25T12:36:23.753Z,18.4
2022-07-25T12:37:22.085Z,20.6
2022-07-25T12:38:22.083Z,17.1
2022-07-25T12:39:22.077Z,14.2
2022-07-25T12:40:22.354Z,14.2
2022-07-25T12:41:22.082Z,17.9
2022-07-25T12:42:22.071Z,17.9
2022-07-25T12:43:46.598Z,18.7
2022-07-25T12:44:22.086Z,16.7
2022-07-25T12:45:22.071Z,16.7
2022-07-25T12:46:22.117Z,15.7
2022-07-25T12:47:22.114Z,18.6
2022-07-25T12:48:22.122Z,15.3
2022-07-25T12:49:31.171Z,15.3
2022-07-25T12:50:22.076Z,15.5
2022-07-25T12:51:22.089Z,15.5
2022-07-25T12:52:22.079Z,19
2022-07-25T12:53:22.079Z,19
2022-07-25T12:54:22.656Z,15.3
2022-07-25T12:55:22.091Z,19.2
2022-07-25T12:56:22.082Z,19.2
2022-07-25T12:57:33.387Z,18.3
2022-07-25T12:58:27.331Z,23.4
2022-07-25T12:59:22.084Z,23.4
2022-07-25T13:00:22.101Z,17.1
2022-07-25T13:01:22.124Z,15.2
2022-07-25T13:02:22.181Z,15.2
2022-07-25T13:03:22.075Z,16.1
2022-07-25T13:04:22.078Z,15.1
2022-07-25T13:05:22.075Z,15.1
2022-07-25T13:06:22.087Z,15.1
2022-07-25T13:07:22.084Z,17.7
2022-07-25T13:08:22.108Z,17.9
2022-07-25T13:09:22.086Z,17.9
2022-07-25T13:10:22.086Z,16.5
2022-07-25T13:11:26.666Z,19.5
2022-07-25T13:12:22.077Z,19.7
2022-07-25T13:13:22.105Z,17.8
2022-07-25T13:14:22.080Z,16.5
2022-07-25T13:15:22.077Z,17.7
2022-07-25T13:16:22.173Z,17.7
2022-07-25T13:17:26.687Z,16.3
2022-07-25T13:18:33.514Z,16.3
2022-07-25T13:19:22.083Z,18.7
2022-07-25T13:20:22.084Z,18.3
2022-07-25T13:21:22.118Z,17.2
2022-07-25T13:22:22.093Z,18.6
2022-07-25T13:23:22.084Z,18.6
2022-07-25T13:24:22.836Z,16
2022-07-25T13:25:22.082Z,17.4
2022-07-25T13:26:22.101Z,17
2022-07-25T13:27:22.079Z,15.8
2022-07-25T13:28:22.077Z,16.5
2022-07-25T13:29:22.081Z,16.5
2022-07-25T13:30:22.093Z,14.6
2022-07-25T13:31:52.982Z,14.6
2022-07-25T13:32:22.093Z,15.3
2022-07-25T13:33:41.150Z,17.3
2022-07-25T13:34:22.077Z,20.5
2022-07-25T13:35:24.703Z,14.6
2022-07-25T13:36:22.078Z,15.6
2022-07-25T13:37:33.939Z,15.6
2022-07-25T13:38:22.078Z,17.9
2022-07-25T13:39:22.082Z,17.9
2022-07-25T13:40:22.078Z,17.2
2022-07-25T13:41:22.087Z,18.6
2022-07-25T13:42:22.081Z,19.5
2022-07-25T13:43:22.096Z,19.5
2022-07-25T13:44:22.097Z,16.2
2022-07-25T13:45:22.101Z,16.6
2022-07-25T13:46:22.172Z,16.7
2022-07-25T13:47:25.664Z,13.5
2022-07-25T13:49:22.169Z,20
2022-07-25T13:50:23.370Z,21.5
2022-07-25T13:51:22.076Z,16.2
2022-07-25T13:52:22.087Z,17.5
2022-07-25T13:53:25.511Z,18.8
2022-07-25T13:54:22.087Z,18.8
2022-07-25T13:55:32.441Z,18.3
2022-07-25T13:56:22.080Z,18.3
2022-07-25T13:57:22.084Z,19.1
2022-07-25T13:58:33.758Z,19.1
2022-07-25T13:59:22.237Z,16.6
2022-07-25T14:00:22.079Z,19.4
2022-07-25T14:01:23.716Z,18.3
2022-07-25T14:02:22.189Z,18.3
2022-07-25T14:03:26.025Z,17
2022-07-25T14:04:22.773Z,17
2022-07-25T14:05:22.087Z,19.2
2022-07-25T14:06:22.085Z,17.3
2022-07-25T14:07:22.102Z,17.3
2022-07-25T14:08:22.094Z,15.7
2022-07-25T14:09:22.078Z,17.4
2022-07-25T14:10:22.090Z,19
2022-07-25T14:11:23.946Z,19
2022-07-25T14:12:22.101Z,22.2
2022-07-25T14:13:38.603Z,21.7
2022-07-25T14:14:22.083Z,19.1
2022-07-25T14:15:22.077Z,19.1
2022-07-25T14:16:23.114Z,18.8
2022-07-25T14:17:25.787Z,15
2022-07-25T14:18:22.075Z,16.6
2022-07-25T14:19:22.075Z,16.6
2022-07-25T14:20:22.129Z,16.9
2022-07-25T14:21:22.089Z,14.7
2022-07-25T14:22:22.100Z,15.3
2022-07-25T14:23:28.134Z,13.5
2022-07-25T14:24:22.083Z,13.5
2022-07-25T14:25:22.091Z,17.3
2022-07-25T14:26:22.092Z,19.7
2022-07-25T14:27:27.357Z,13.8
2022-07-25T14:28:22.091Z,17.6
2022-07-25T14:29:25.942Z,18.9
2022-07-25T14:30:22.100Z,17.1
2022-07-25T14:31:22.153Z,16.2
2022-07-25T14:32:22.110Z,16.2
2022-07-25T14:33:22.091Z,15.9
2022-07-25T14:34:22.093Z,17.6
2022-07-25T14:35:22.071Z,13.4
2022-07-25T14:36:22.073Z,15.1
2022-07-25T14:37:22.113Z,14.8
2022-07-25T14:38:22.069Z,14.8
2022-07-25T14:39:22.068Z,16.4
2022-07-25T14:40:22.088Z,16.7
2022-07-25T14:41:27.598Z,14.6
2022-07-25T14:42:22.104Z,15.6
2022-07-25T14:43:25.170Z,15.6
2022-07-25T14:44:22.083Z,20.2
2022-07-25T14:45:22.073Z,17.6
2022-07-25T14:46:22.169Z,20.6
2022-07-25T14:47:22.145Z,15.2
2022-07-25T14:48:22.084Z,17.9
2022-07-25T14:49:22.161Z,17.6
2022-07-25T14:50:22.495Z,17.6
2022-07-25T14:51:22.097Z,15.1
2022-07-25T14:52:22.090Z,17
2022-07-25T14:53:22.078Z,17.8
2022-07-25T14:54:22.085Z,17.8
2022-07-25T14:56:39.911Z,15.8
2022-07-25T14:56:39.960Z,15.8
2022-07-25T14:57:22.099Z,15.1
2022-07-25T14:58:22.084Z,15.1
2022-07-25T14:59:22.100Z,15.6
2022-07-25T15:00:26.213Z,15.6
2022-07-25T15:01:22.184Z,15.1